createdAt,value
2022-12-14T00:02:24.659Z,0.60
2022-12-14T00:07:38.258Z,0.40
2022-12-14T09:25:46.160Z,5.20
2022-12-14T09:31:00.562Z,5.03
2022-12-14T09:36:08.851Z,7.53
2022-12-14T09:41:32.796Z,7.27
2022-12-14T09:46:51.136Z,5.97
2022-12-14T09:51:59.747Z,6.13
2022-12-14T09:57:20.121Z,6.63
2022-12-14T10:02:44.624Z,5.40
2022-12-14T10:08:07.707Z,5.63
2022-12-14T10:13:32.366Z,5.73
2022-12-14T10:19:00.443Z,6.50
2022-12-14T10:24:20.108Z,4.30
2022-12-14T10:29:43.305Z,6.23
2022-12-14T10:34:56.022Z,4.90
2022-12-14T10:40:33.557Z,6.13
2022-12-14T10:45:53.649Z,8.07
2022-12-14T10:51:10.423Z,10.57
2022-12-14T10:56:26.816Z,6.77
2022-12-14T11:01:42.511Z,5.63
2022-12-14T11:06:55.327Z,5.57
2022-12-14T11:12:13.338Z,7.40
2022-12-14T11:17:43.158Z,5.53
2022-12-14T11:22:54.449Z,5.60
2022-12-14T11:28:01.467Z,8.10
2022-12-14T11:33:15.566Z,6.43
2022-12-14T11:38:23.968Z,6.40
2022-12-14T11:43:36.018Z,8.77
2022-12-14T11:48:56.613Z,7.47
2022-12-14T11:54:10.890Z,7.27
2022-12-14T11:59:22.297Z,9.57
2022-12-14T12:04:36.532Z,8.53
2022-12-14T12:09:46.123Z,9.93
2022-12-14T12:14:57.557Z,8.60
2022-12-14T12:20:09.009Z,8.80
2022-12-14T12:25:32.221Z,8.67
2022-12-14T12:30:47.739Z,8.47
2022-12-14T12:36:01.986Z,8.60
2022-12-14T12:41:20.231Z,6.67
2022-12-14T12:46:48.395Z,8.47
2022-12-14T12:52:12.103Z,9.00
2022-12-14T12:57:22.936Z,9.90
2022-12-14T13:02:35.967Z,9.50
2022-12-14T13:07:51.713Z,11.27
2022-12-14T13:13:01.560Z,9.33
2022-12-14T13:18:40.786Z,9.80
2022-12-14T13:23:47.032Z,8.47
2022-12-14T13:29:02.235Z,7.27
2022-12-14T13:34:32.742Z,8.80
2022-12-14T13:45:21.610Z,9.40
2022-12-14T13:50:36.612Z,11.53
2022-12-14T13:55:53.088Z,11.03
2022-12-14T14:01:08.518Z,10.40
2022-12-14T14:06:23.191Z,10.03
2022-12-14T14:11:51.173Z,9.63
2022-12-14T14:17:05.100Z,12.67
2022-12-14T14:22:26.722Z,10.67
2022-12-14T14:27:40.449Z,10.07
2022-12-14T14:33:07.672Z,9.77
2022-12-14T14:38:30.540Z,8.40
2022-12-14T14:43:43.259Z,9.60
2022-12-14T14:49:01.176Z,10.17
2022-12-14T15:00:05.790Z,10.23
2022-12-14T15:10:52.487Z,9.30
2022-12-14T15:16:01.035Z,15.30
2022-12-14T15:21:13.673Z,15.10
2022-12-14T15:26:25.342Z,13.30
2022-12-14T15:31:37.471Z,13.70
2022-12-14T15:36:49.277Z,12.33
2022-12-14T15:42:07.217Z,13.70
2022-12-14T15:47:28.107Z,15.10
2022-12-14T15:52:39.601Z,15.80
2022-12-14T15:57:49.887Z,15.07
2022-12-14T16:02:58.545Z,14.50
2022-12-14T16:08:15.720Z,15.20
2022-12-14T16:13:30.009Z,15.07
2022-12-14T16:18:39.148Z,16.50
2022-12-14T16:23:51.392Z,15.33
2022-12-14T16:29:15.067Z,15.70
2022-12-14T16:34:26.397Z,13.13
2022-12-14T16:39:44.081Z,13.13
2022-12-14T16:44:55.182Z,13.77
2022-12-14T16:50:03.985Z,13.20
2022-12-14T16:55:21.315Z,14.10
2022-12-14T17:00:33.747Z,16.00
2022-12-14T17:05:45.326Z,12.57
2022-12-14T17:10:57.344Z,12.47
2022-12-14T17:16:07.247Z,10.40
2022-12-14T17:21:23.181Z,12.63
2022-12-14T17:26:35.468Z,13.00
2022-12-14T17:31:49.967Z,10.27
2022-12-14T17:36:58.623Z,6.90
2022-12-14T17:42:12.003Z,12.10
2022-12-14T17:47:22.047Z,9.83
2022-12-14T17:52:32.688Z,12.13
2022-12-14T18:02:51.261Z,8.88
2022-12-14T18:07:59.920Z,9.17
2022-12-14T18:13:12.028Z,9.00
2022-12-14T18:18:19.999Z,8.07
2022-12-14T18:23:29.168Z,7.60
2022-12-14T18:28:43.574Z,8.00
2022-12-14T18:33:52.251Z,7.73
2022-12-14T18:38:59.567Z,8.57
2022-12-14T18:44:12.516Z,7.33
2022-12-14T18:49:20.388Z,7.50
2022-12-14T18:54:27.616Z,7.27
2022-12-14T18:59:42.463Z,7.60
2022-12-14T19:04:52.659Z,6.53
2022-12-14T19:09:59.910Z,8.33
2022-12-14T19:15:12.372Z,6.77
2022-12-14T19:20:20.499Z,6.60
2022-12-14T19:25:28.701Z,6.33
2022-12-14T19:30:39.352Z,4.53
2022-12-14T19:35:49.620Z,6.20
2022-12-14T19:41:06.162Z,7.70
2022-12-14T19:46:20.435Z,5.73
2022-12-14T19:51:28.878Z,6.70
2022-12-14T19:56:37.099Z,6.43
2022-12-14T20:01:48.371Z,5.87
2022-12-14T20:06:57.577Z,5.73
2022-12-14T20:12:07.396Z,5.20
2022-12-14T20:17:18.228Z,4.37
2022-12-14T20:22:25.881Z,4.97
2022-12-14T20:27:38.876Z,4.63
2022-12-14T20:32:54.648Z,5.20
2022-12-14T20:38:03.394Z,4.07
2022-12-14T20:43:11.444Z,4.87
2022-12-14T20:48:21.930Z,5.00
2022-12-14T20:53:29.771Z,4.60
2022-12-14T20:58:37.492Z,5.40
2022-12-14T21:03:48.107Z,3.30
2022-12-14T21:09:13.332Z,4.50
2022-12-14T21:14:20.550Z,4.27
2022-12-14T21:19:30.895Z,5.60
2022-12-14T21:30:06.490Z,4.17
2022-12-14T21:35:19.574Z,4.07
2022-12-14T21:40:38.971Z,4.33
2022-12-14T21:45:46.785Z,4.30
2022-12-14T21:51:01.079Z,4.53
2022-12-14T21:56:21.084Z,4.60
2022-12-14T22:01:28.281Z,4.07
2022-12-14T22:06:38.248Z,3.67
2022-12-14T22:11:45.286Z,3.50
2022-12-14T22:16:53.220Z,4.43
2022-12-14T22:22:03.047Z,3.83
2022-12-14T22:27:10.112Z,4.13
2022-12-14T22:32:17.358Z,4.17
2022-12-14T22:37:26.598Z,4.20
2022-12-14T22:42:33.454Z,3.50
2022-12-14T22:47:40.257Z,3.67
2022-12-14T22:52:49.988Z,3.33
2022-12-14T22:57:57.619Z,2.83
2022-12-14T23:03:04.871Z,3.07
2022-12-14T23:08:15.782Z,3.23
2022-12-14T23:13:35.224Z,4.10
2022-12-14T23:18:54.146Z,3.53
2022-12-14T23:24:15.910Z,3.27
2022-12-14T23:29:35.189Z,3.00
2022-12-14T23:34:54.394Z,3.43
2022-12-14T23:40:16.230Z,3.20
2022-12-14T23:45:35.709Z,3.63
2022-12-14T23:50:55.945Z,3.43
2022-12-14T23:56:17.592Z,3.87
